Time;durP1;ratioP1;P1;durP2;ratioP2;P2;SDS_P1;SDS_P2;PMS_P1;PMS_P2;Temp;Humidity;BMP_temperature;BMP_pressure;BME280_temperature;BME280_humidity;BME280_pressure;Samples;Min_cycle;Max_cycle;Signal;HPM_P1;HPM_P2
2020/12/19 05:47:45;;;;;;;13.02;9.60;;;;;;;;;;5125308;27;20587;-82
2020/12/19 05:50:11;;;;;;;12.32;9.18;;;;;;;;;;5112727;28;20035;-82
2020/12/19 05:52:38;;;;;;;14.63;8.95;;;;;;;;;;5117199;28;20028;-82
2020/12/19 05:55:08;;;;;;;12.82;9.25;;;;;;;;;;5110898;28;20016;-82
2020/12/19 05:57:35;;;;;;;12.13;8.75;;;;;;;;;;5098997;28;20102;-82
2020/12/19 06:00:02;;;;;;;13.32;8.43;;;;;;;;;;5098643;28;20465;-82
2020/12/19 06:02:30;;;;;;;12.43;7.25;;;;;;;;;;5111214;28;20055;-82
2020/12/19 06:05:00;;;;;;;15.25;8.60;;;;;;;;;;5098340;28;20052;-82
2020/12/19 06:07:28;;;;;;;13.38;8.68;;;;;;;;;;5106980;28;20024;-82
2020/12/19 06:09:54;;;;;;;10.93;8.15;;;;;;;;;;5107712;28;20036;-82
2020/12/19 06:12:36;;;;;;;10.25;7.47;;;;;;;;;;5102867;28;20446;-82
2020/12/19 06:15:04;;;;;;;12.45;8.70;;;;;;;;;;5106685;28;20020;-82
2020/12/19 06:17:51;;;;;;;13.80;8.63;;;;;;;;;;5107927;28;20047;-82
2020/12/19 06:20:17;;;;;;;12.00;8.27;;;;;;;;;;5109735;28;20062;-81
2020/12/19 06:22:43;;;;;;;11.50;7.68;;;;;;;;;;5103690;28;20382;-81
2020/12/19 06:25:09;;;;;;;14.15;8.98;;;;;;;;;;5101014;28;20020;-79
2020/12/19 06:27:35;;;;;;;12.45;8.38;;;;;;;;;;5096084;28;20442;-79
2020/12/19 06:30:02;;;;;;;13.70;8.07;;;;;;;;;;5096029;28;20051;-79
2020/12/19 06:32:29;;;;;;;12.00;7.70;;;;;;;;;;5097762;28;20020;-79
2020/12/19 06:34:59;;;;;;;12.23;8.50;;;;;;;;;;5096876;28;20099;-79
2020/12/19 06:37:29;;;;;;;10.95;7.82;;;;;;;;;;5095784;28;20062;-79
2020/12/19 06:40:13;;;;;;;11.95;7.70;;;;;;;;;;5096447;28;20389;-79
2020/12/19 06:42:39;;;;;;;12.05;8.30;;;;;;;;;;5098221;28;20107;-79
2020/12/19 06:45:35;;;;;;;12.23;7.63;;;;;;;;;;5099830;28;20028;-79
2020/12/19 06:48:01;;;;;;;13.60;7.80;;;;;;;;;;5071571;28;20044;-79
2020/12/19 06:50:46;;;;;;;11.90;7.28;;;;;;;;;;5087651;28;20024;-79
2020/12/19 06:53:16;;;;;;;11.43;8.13;;;;;;;;;;5096349;28;20066;-79
2020/12/19 06:55:42;;;;;;;10.27;7.25;;;;;;;;;;5086510;28;20020;-79
2020/12/19 06:58:08;;;;;;;10.55;7.22;;;;;;;;;;5089547;28;20039;-79
2020/12/19 07:00:35;;;;;;;13.02;7.60;;;;;;;;;;5087763;28;20102;-80
2020/12/19 07:03:01;;;;;;;13.93;8.43;;;;;;;;;;5087451;28;20016;-79
2020/12/19 07:05:30;;;;;;;14.65;8.77;;;;;;;;;;5084347;28;20119;-79
2020/12/19 07:08:15;;;;;;;13.82;8.35;;;;;;;;;;5080595;28;20032;-79
2020/12/19 07:10:41;;;;;;;14.45;9.07;;;;;;;;;;5087656;28;20383;-80
2020/12/19 07:13:07;;;;;;;14.13;9.55;;;;;;;;;;5080729;28;20074;-80
2020/12/19 07:15:45;;;;;;;18.85;11.38;;;;;;;;;;5083225;28;20020;-79
2020/12/19 07:18:27;;;;;;;15.30;9.00;;;;;;;;;;5095763;28;20046;-80
2020/12/19 07:21:04;;;;;;;14.65;9.60;;;;;;;;;;5095163;28;20091;-79
2020/12/19 07:23:30;;;;;;;22.92;10.10;;;;;;;;;;5095894;28;20016;-79
2020/12/19 07:25:56;;;;;;;19.10;10.43;;;;;;;;;;5095862;28;20071;-80
2020/12/19 07:28:22;;;;;;;17.90;9.20;;;;;;;;;;5083673;28;20032;-80
2020/12/19 07:30:51;;;;;;;13.55;9.57;;;;;;;;;;5090068;28;20013;-79
2020/12/19 07:33:18;;;;;;;18.40;10.10;;;;;;;;;;5087852;28;20039;-80
2020/12/19 07:35:44;;;;;;;17.23;10.63;;;;;;;;;;5090910;28;20099;-79
2020/12/19 07:38:10;;;;;;;13.43;9.38;;;;;;;;;;5086643;28;20028;-79
2020/12/19 07:40:36;;;;;;;16.30;9.25;;;;;;;;;;5091716;28;20021;-79
2020/12/19 07:43:03;;;;;;;15.40;10.40;;;;;;;;;;5093688;28;20027;-79
2020/12/19 07:45:29;;;;;;;17.30;10.15;;;;;;;;;;5087355;28;20047;-79
2020/12/19 07:47:55;;;;;;;13.43;9.40;;;;;;;;;;5081858;28;20088;-80
2020/12/19 07:50:29;;;;;;;14.13;9.82;;;;;;;;;;5087012;28;20024;-80
2020/12/19 07:53:02;;;;;;;15.15;9.77;;;;;;;;;;5084396;28;20430;-79
2020/12/19 07:55:28;;;;;;;17.17;12.50;;;;;;;;;;5086050;28;20512;-80
2020/12/19 07:57:55;;;;;;;25.55;16.98;;;;;;;;;;5087696;28;20029;-80
2020/12/19 08:00:21;;;;;;;30.42;20.08;;;;;;;;;;5083376;28;20021;-80
2020/12/19 08:02:47;;;;;;;22.52;15.35;;;;;;;;;;5080856;28;20040;-79
2020/12/19 08:05:13;;;;;;;25.80;15.98;;;;;;;;;;5086351;28;20477;-80
2020/12/19 08:07:39;;;;;;;24.00;15.52;;;;;;;;;;5089371;28;20104;-79
2020/12/19 08:10:09;;;;;;;27.48;17.92;;;;;;;;;;5089421;28;20044;-80
2020/12/19 08:12:35;;;;;;;19.20;12.38;;;;;;;;;;5088969;28;20389;-81
2020/12/19 08:15:10;;;;;;;26.70;14.77;;;;;;;;;;5087519;28;20027;-79
2020/12/19 08:17:46;;;;;;;22.35;15.40;;;;;;;;;;5079046;28;20029;-79
2020/12/19 08:20:12;;;;;;;27.15;16.67;;;;;;;;;;5079020;28;20031;-79
2020/12/19 08:24:56;;;;;;;26.50;16.63;;;;;;;;;;5100898;27;20432;-79
2020/12/19 08:27:26;;;;;;;28.35;17.17;;;;;;;;;;5100382;28;20028;-79
2020/12/19 08:30:05;;;;;;;28.23;17.40;;;;;;;;;;5092943;28;20418;-79
2020/12/19 08:32:31;;;;;;;30.65;20.02;;;;;;;;;;5092696;28;20032;-79
2020/12/19 08:37:19;;;;;;;32.95;22.45;;;;;;;;;;5102870;27;20372;-80
2020/12/19 08:40:01;;;;;;;42.00;26.15;;;;;;;;;;5101080;28;20387;-80
2020/12/19 08:42:27;;;;;;;;;;;;;;;;;;5113063;28;20070;-80
2020/12/19 08:44:53;;;;;;;36.80;24.90;;;;;;;;;;5109025;28;19927;-80
2020/12/19 08:47:21;;;;;;;33.28;22.80;;;;;;;;;;5102793;28;20035;-80
2020/12/19 08:49:47;;;;;;;27.95;19.40;;;;;;;;;;5112320;28;20069;-79
2020/12/19 08:52:18;;;;;;;28.45;19.65;;;;;;;;;;5122014;28;20080;-81
2020/12/19 08:55:00;;;;;;;25.33;19.10;;;;;;;;;;5097121;28;20032;-80
2020/12/19 08:57:26;;;;;;;27.27;18.92;;;;;;;;;;5110567;28;20429;-80
2020/12/19 08:59:52;;;;;;;28.15;18.83;;;;;;;;;;5103241;28;20031;-80
2020/12/19 09:04:46;;;;;;;26.55;17.17;;;;;;;;;;5102658;27;20441;-80
2020/12/19 09:07:12;;;;;;;25.92;17.27;;;;;;;;;;5098582;28;20027;-80
2020/12/19 09:09:38;;;;;;;25.67;18.15;;;;;;;;;;5102928;28;20023;-80
2020/12/19 09:12:08;;;;;;;24.33;17.65;;;;;;;;;;5100147;28;20468;-80
2020/12/19 09:14:34;;;;;;;26.10;18.60;;;;;;;;;;5097007;28;20020;-80
2020/12/19 09:17:00;;;;;;;29.13;19.02;;;;;;;;;;5102115;28;20035;-80
2020/12/19 09:19:26;;;;;;;28.00;18.48;;;;;;;;;;5097625;28;20024;-80
2020/12/19 09:21:56;;;;;;;24.85;17.83;;;;;;;;;;5098173;28;20034;-80
2020/12/19 09:24:23;;;;;;;28.20;19.55;;;;;;;;;;5093709;28;20028;-80
2020/12/19 09:26:48;;;;;;;32.40;22.38;;;;;;;;;;5097280;28;20031;-78
2020/12/19 09:29:14;;;;;;;28.58;21.50;;;;;;;;;;5095229;28;20119;-78
2020/12/19 09:31:40;;;;;;;30.95;21.67;;;;;;;;;;5095144;28;20372;-78
2020/12/19 09:34:06;;;;;;;32.80;22.88;;;;;;;;;;5093468;28;20039;-79
2020/12/19 09:36:32;;;;;;;34.33;23.60;;;;;;;;;;5090445;28;20028;-78
2020/12/19 09:38:58;;;;;;;39.58;25.00;;;;;;;;;;5094997;28;20103;-78
2020/12/19 09:41:24;;;;;;;32.08;21.83;;;;;;;;;;5094737;28;20062;-77
2020/12/19 09:43:50;;;;;;;31.70;23.13;;;;;;;;;;5091928;28;20028;-78
2020/12/19 09:46:16;;;;;;;43.72;26.35;;;;;;;;;;5093885;28;20016;-79
2020/12/19 09:48:42;;;;;;;34.05;25.15;;;;;;;;;;5093479;28;20066;-79
2020/12/19 09:51:08;;;;;;;35.50;24.10;;;;;;;;;;5097435;28;20026;-79
2020/12/19 09:53:35;;;;;;;36.00;25.38;;;;;;;;;;5095147;28;20392;-79
2020/12/19 09:56:01;;;;;;;32.15;22.95;;;;;;;;;;5098429;28;20061;-79
2020/12/19 09:58:27;;;;;;;35.50;25.48;;;;;;;;;;5097252;28;20547;-78
2020/12/19 10:00:53;;;;;;;31.20;23.38;;;;;;;;;;5093831;28;20020;-78
2020/12/19 10:03:19;;;;;;;30.95;22.95;;;;;;;;;;5095798;28;20388;-78
2020/12/19 10:05:45;;;;;;;30.42;22.55;;;;;;;;;;5097386;28;20100;-78
2020/12/19 10:08:11;;;;;;;38.20;23.92;;;;;;;;;;5103765;28;20048;-78
2020/12/19 10:10:37;;;;;;;33.10;20.85;;;;;;;;;;5097547;28;20035;-79
2020/12/19 10:13:03;;;;;;;28.35;19.73;;;;;;;;;;5100147;28;20492;-79
2020/12/19 10:15:29;;;;;;;29.85;19.88;;;;;;;;;;5088955;28;20036;-78
2020/12/19 10:17:55;;;;;;;33.85;22.10;;;;;;;;;;5096510;28;20032;-78
2020/12/19 10:20:21;;;;;;;36.42;25.20;;;;;;;;;;5090283;28;20032;-79
2020/12/19 10:22:47;;;;;;;41.40;26.35;;;;;;;;;;5087720;28;20027;-79
2020/12/19 10:25:13;;;;;;;31.23;23.70;;;;;;;;;;5087131;28;20021;-79
2020/12/19 10:27:40;;;;;;;35.75;23.83;;;;;;;;;;5094851;28;20123;-78
2020/12/19 10:30:06;;;;;;;32.35;21.42;;;;;;;;;;5087401;28;20074;-79
2020/12/19 10:32:32;;;;;;;31.10;22.92;;;;;;;;;;5090174;28;20031;-79
2020/12/19 10:35:00;;;;;;;36.90;24.48;;;;;;;;;;5079800;28;20024;-79
2020/12/19 10:37:27;;;;;;;41.50;25.27;;;;;;;;;;5077114;28;20013;-79
2020/12/19 10:39:53;;;;;;;33.03;24.63;;;;;;;;;;5083710;28;20020;-79
2020/12/19 10:42:18;;;;;;;26.83;20.60;;;;;;;;;;5084510;28;20066;-79
2020/12/19 10:44:44;;;;;;;26.70;19.67;;;;;;;;;;5079685;28;20051;-79
2020/12/19 10:47:10;;;;;;;38.25;26.00;;;;;;;;;;5079952;28;20030;-79
2020/12/19 10:49:36;;;;;;;38.80;26.15;;;;;;;;;;5076463;28;20481;-79
2020/12/19 10:52:03;;;;;;;43.60;26.52;;;;;;;;;;5078834;28;20054;-80
2020/12/19 10:54:29;;;;;;;36.75;24.45;;;;;;;;;;5085423;28;20043;-80
2020/12/19 10:56:55;;;;;;;40.38;27.92;;;;;;;;;;5085223;28;20430;-80
2020/12/19 10:59:21;;;;;;;41.10;27.33;;;;;;;;;;5086830;28;20032;-80
2020/12/19 11:01:47;;;;;;;37.13;25.92;;;;;;;;;;5081582;28;20075;-80
2020/12/19 11:04:13;;;;;;;35.92;25.60;;;;;;;;;;5078233;28;20033;-80
2020/12/19 11:06:39;;;;;;;32.15;23.98;;;;;;;;;;5087315;28;20035;-80
2020/12/19 11:09:05;;;;;;;36.90;26.98;;;;;;;;;;5078970;28;20025;-80
2020/12/19 11:11:31;;;;;;;34.67;26.80;;;;;;;;;;5086985;28;20087;-80
2020/12/19 11:13:57;;;;;;;39.78;28.85;;;;;;;;;;5084165;28;20032;-80
2020/12/19 11:16:27;;;;;;;42.17;30.45;;;;;;;;;;5080479;28;20115;-80
2020/12/19 11:18:53;;;;;;;42.10;32.13;;;;;;;;;;5082411;28;20032;-81
2020/12/19 11:21:19;;;;;;;44.00;29.83;;;;;;;;;;5080423;28;20082;-80
2020/12/19 11:23:45;;;;;;;34.83;27.23;;;;;;;;;;5087064;28;20025;-80
2020/12/19 11:26:12;;;;;;;44.70;29.13;;;;;;;;;;5073788;28;20389;-80
2020/12/19 11:28:38;;;;;;;39.03;28.48;;;;;;;;;;5076002;28;20021;-80
2020/12/19 11:31:05;;;;;;;44.47;30.60;;;;;;;;;;5083039;28;20085;-80
2020/12/19 11:33:31;;;;;;;40.10;29.15;;;;;;;;;;5089215;28;20028;-81
2020/12/19 11:35:58;;;;;;;38.92;28.02;;;;;;;;;;5084128;28;20020;-80
2020/12/19 11:38:24;;;;;;;41.83;29.25;;;;;;;;;;5087867;28;20093;-81
2020/12/19 11:40:50;;;;;;;41.97;31.92;;;;;;;;;;5084862;28;20032;-81
2020/12/19 11:43:16;;;;;;;46.20;32.75;;;;;;;;;;5084709;28;20032;-81
2020/12/19 11:45:42;;;;;;;44.60;32.83;;;;;;;;;;5086996;28;20016;-80
2020/12/19 11:48:08;;;;;;;44.40;34.28;;;;;;;;;;5083517;28;20039;-80
2020/12/19 11:50:34;;;;;;;52.40;38.40;;;;;;;;;;5087811;28;20024;-80
2020/12/19 11:53:00;;;;;;;64.07;47.20;;;;;;;;;;5085764;28;20479;-80
2020/12/19 11:55:26;;;;;;;58.70;43.70;;;;;;;;;;5078974;28;20035;-80
2020/12/19 11:57:52;;;;;;;54.33;37.58;;;;;;;;;;5090166;28;20781;-81
2020/12/19 12:00:18;;;;;;;46.75;34.28;;;;;;;;;;5083045;28;20028;-81
2020/12/19 12:02:44;;;;;;;37.08;28.80;;;;;;;;;;5082985;28;20392;-82
2020/12/19 12:05:09;;;;;;;35.92;27.67;;;;;;;;;;5079447;28;20029;-80
2020/12/19 12:07:37;;;;;;;35.30;25.55;;;;;;;;;;5073897;28;20091;-79
2020/12/19 12:10:03;;;;;;;32.55;24.33;;;;;;;;;;5071584;28;20082;-81
2020/12/19 12:12:29;;;;;;;34.13;25.10;;;;;;;;;;5080253;28;20033;-79
2020/12/19 12:14:55;;;;;;;29.70;24.05;;;;;;;;;;5076608;28;20032;-81
2020/12/19 12:17:21;;;;;;;31.67;23.30;;;;;;;;;;5077898;28;20369;-81
2020/12/19 12:19:47;;;;;;;24.27;19.55;;;;;;;;;;5076968;28;20047;-80
2020/12/19 12:22:13;;;;;;;25.52;19.67;;;;;;;;;;5084616;28;20495;-80
2020/12/19 12:26:57;;;;;;;31.67;16.48;;;;;;;;;;5090293;27;20780;-82
2020/12/19 12:29:23;;;;;;;19.98;16.25;;;;;;;;;;5083752;28;20071;-82
2020/12/19 12:31:49;;;;;;;22.77;16.95;;;;;;;;;;5084868;28;20024;-82
2020/12/19 12:34:15;;;;;;;20.13;15.15;;;;;;;;;;5086682;28;20093;-82
2020/12/19 12:36:41;;;;;;;21.58;15.65;;;;;;;;;;5083580;28;20020;-81
2020/12/19 12:39:07;;;;;;;22.58;15.30;;;;;;;;;;5079815;28;20062;-80
2020/12/19 12:41:33;;;;;;;17.08;12.52;;;;;;;;;;5079915;28;20020;-80
2020/12/19 12:43:59;;;;;;;21.45;15.75;;;;;;;;;;5086321;28;20036;-80
2020/12/19 12:46:25;;;;;;;17.10;12.70;;;;;;;;;;5079934;28;20029;-82
2020/12/19 12:48:51;;;;;;;12.98;7.72;;;;;;;;;;5086456;28;20035;-81
2020/12/19 12:51:18;;;;;;;11.45;7.03;;;;;;;;;;5090834;28;20017;-81
2020/12/19 12:53:47;;;;;;;8.38;5.38;;;;;;;;;;5085660;28;20032;-80
2020/12/19 12:56:14;;;;;;;8.63;5.88;;;;;;;;;;5078897;28;20017;-81
2020/12/19 13:00:59;;;;;;;12.95;7.05;;;;;;;;;;5090777;27;20425;-82
2020/12/19 13:03:25;;;;;;;11.57;7.70;;;;;;;;;;5090415;28;20016;-83
2020/12/19 13:05:51;;;;;;;9.40;6.07;;;;;;;;;;5089298;28;20024;-83
2020/12/19 13:08:17;;;;;;;8.50;5.05;;;;;;;;;;5082191;28;20415;-83
2020/12/19 13:13:01;;;;;;;8.88;4.70;;;;;;;;;;5081391;28;20348;-80
2020/12/19 13:15:27;;;;;;;7.18;4.57;;;;;;;;;;5094834;28;20028;-79
2020/12/19 13:20:11;;;;;;;6.53;4.20;;;;;;;;;;5122598;27;20378;-79
2020/12/19 13:22:37;;;;;;;6.40;4.28;;;;;;;;;;5109533;28;20027;-82
2020/12/19 13:25:03;;;;;;;6.60;4.35;;;;;;;;;;5097551;28;20658;-82
2020/12/19 13:27:29;;;;;;;7.25;4.75;;;;;;;;;;5095462;28;21081;-82
2020/12/19 13:29:55;;;;;;;6.07;3.78;;;;;;;;;;5098983;28;20032;-82
2020/12/19 13:32:21;;;;;;;5.75;3.80;;;;;;;;;;5093794;28;20091;-82
2020/12/19 13:34:47;;;;;;;7.07;4.80;;;;;;;;;;5092775;28;20090;-81
2020/12/19 13:37:13;;;;;;;8.70;5.32;;;;;;;;;;5105848;28;20036;-80
2020/12/19 13:39:39;;;;;;;8.07;5.60;;;;;;;;;;5105006;28;20033;-80
2020/12/19 13:42:05;;;;;;;7.80;5.30;;;;;;;;;;5106443;28;20371;-82
2020/12/19 13:44:32;;;;;;;7.80;5.00;;;;;;;;;;5090901;28;20020;-83
2020/12/19 13:46:57;;;;;;;6.00;4.30;;;;;;;;;;5091067;28;20017;-79
2020/12/19 13:49:23;;;;;;;7.80;4.88;;;;;;;;;;5090590;28;20115;-80
2020/12/19 13:51:49;;;;;;;7.28;5.05;;;;;;;;;;5089737;28;20032;-80
2020/12/19 13:54:16;;;;;;;11.38;7.93;;;;;;;;;;5092680;28;20025;-82
2020/12/19 13:56:42;;;;;;;14.23;9.30;;;;;;;;;;5101315;28;20031;-81
2020/12/19 13:59:08;;;;;;;12.38;5.95;;;;;;;;;;5104043;28;20027;-81
2020/12/19 14:01:34;;;;;;;8.38;4.70;;;;;;;;;;5093795;28;20027;-82
2020/12/19 14:06:19;;;;;;;9.07;5.78;;;;;;;;;;5087946;28;20354;-81
2020/12/19 14:08:45;;;;;;;11.18;5.72;;;;;;;;;;5082360;28;20074;-81
2020/12/19 14:11:11;;;;;;;7.43;4.55;;;;;;;;;;5077820;28;20029;-81
2020/12/19 14:13:37;;;;;;;6.18;4.13;;;;;;;;;;5077891;28;20108;-81
2020/12/19 14:16:03;;;;;;;6.50;4.38;;;;;;;;;;5084318;28;20450;-81
2020/12/19 14:18:29;;;;;;;7.28;4.75;;;;;;;;;;5080171;28;20082;-81
2020/12/19 14:20:55;;;;;;;10.85;5.00;;;;;;;;;;5063462;28;20032;-80
2020/12/19 14:23:21;;;;;;;6.35;3.88;;;;;;;;;;5079760;28;20465;-81
2020/12/19 14:25:47;;;;;;;7.30;3.92;;;;;;;;;;5053964;28;20174;-80
2020/12/19 14:28:13;;;;;;;8.85;4.50;;;;;;;;;;5068719;28;20091;-80
2020/12/19 14:30:39;;;;;;;5.55;3.75;;;;;;;;;;5065853;28;20039;-82
2020/12/19 14:33:05;;;;;;;6.32;4.10;;;;;;;;;;5053798;28;20029;-81
2020/12/19 14:35:31;;;;;;;6.30;4.03;;;;;;;;;;5069742;28;20032;-80
2020/12/19 14:37:57;;;;;;;5.55;3.88;;;;;;;;;;5070935;28;20032;-80
2020/12/19 14:40:23;;;;;;;6.47;4.78;;;;;;;;;;5070015;28;20099;-81
2020/12/19 14:42:49;;;;;;;16.13;10.20;;;;;;;;;;5051346;28;20029;-81
2020/12/19 14:45:15;;;;;;;20.58;12.73;;;;;;;;;;5068006;28;20028;-81
2020/12/19 14:47:41;;;;;;;10.68;7.13;;;;;;;;;;5049915;28;20025;-82
2020/12/19 14:50:07;;;;;;;17.42;10.88;;;;;;;;;;5047810;28;21396;-82
2020/12/19 14:52:33;;;;;;;9.05;6.57;;;;;;;;;;5067850;28;20528;-80
2020/12/19 14:54:59;;;;;;;8.57;5.25;;;;;;;;;;5051848;28;20052;-82
2020/12/19 14:57:25;;;;;;;9.60;5.22;;;;;;;;;;5049840;28;20074;-82
2020/12/19 14:59:51;;;;;;;7.32;4.97;;;;;;;;;;5050071;28;20025;-81
2020/12/19 15:02:17;;;;;;;7.28;4.47;;;;;;;;;;5049692;28;20559;-82
2020/12/19 15:04:43;;;;;;;6.05;4.35;;;;;;;;;;5066382;28;20477;-82
2020/12/19 15:07:09;;;;;;;6.68;4.07;;;;;;;;;;5069091;28;20032;-80
2020/12/19 15:09:35;;;;;;;6.20;4.10;;;;;;;;;;5072260;28;20383;-81
2020/12/19 15:12:01;;;;;;;6.25;4.53;;;;;;;;;;5072016;28;20044;-82
2020/12/19 15:14:27;;;;;;;6.30;4.03;;;;;;;;;;5073496;28;20028;-82
2020/12/19 15:16:54;;;;;;;6.15;3.85;;;;;;;;;;5066792;28;20044;-80
2020/12/19 15:19:20;;;;;;;6.95;3.63;;;;;;;;;;5054989;28;20615;-82
2020/12/19 15:21:46;;;;;;;6.40;3.20;;;;;;;;;;5054948;28;20024;-81
2020/12/19 15:24:12;;;;;;;5.22;3.83;;;;;;;;;;5055210;28;20089;-82
2020/12/19 15:26:38;;;;;;;5.30;3.40;;;;;;;;;;5054963;28;20039;-82
2020/12/19 15:29:04;;;;;;;10.05;6.40;;;;;;;;;;5033602;28;20024;-82
2020/12/19 15:31:30;;;;;;;14.25;10.73;;;;;;;;;;5053237;28;20034;-82
2020/12/19 15:33:57;;;;;;;13.68;9.98;;;;;;;;;;5049992;28;20022;-81
2020/12/19 15:36:23;;;;;;;13.77;7.85;;;;;;;;;;5051284;28;20884;-78
2020/12/19 15:38:49;;;;;;;11.50;7.50;;;;;;;;;;5053827;28;20021;-80
2020/12/19 15:43:33;;;;;;;26.25;16.25;;;;;;;;;;5085017;27;20966;-80
2020/12/19 15:45:59;;;;;;;22.17;13.32;;;;;;;;;;5088753;28;20024;-81
2020/12/19 15:48:25;;;;;;;19.60;10.40;;;;;;;;;;5080622;28;20439;-81
2020/12/19 15:50:51;;;;;;;15.48;8.00;;;;;;;;;;5084531;28;20055;-81
2020/12/19 15:53:18;;;;;;;12.23;7.75;;;;;;;;;;5075636;28;20036;-80
2020/12/19 15:55:44;;;;;;;14.73;8.57;;;;;;;;;;5077953;28;20028;-83
2020/12/19 15:58:10;;;;;;;12.55;7.25;;;;;;;;;;5077818;28;20086;-81
2020/12/19 16:00:36;;;;;;;12.57;7.72;;;;;;;;;;5087192;28;20067;-82
2020/12/19 16:03:02;;;;;;;13.13;7.45;;;;;;;;;;5077232;28;20032;-82
2020/12/19 16:05:28;;;;;;;13.90;8.43;;;;;;;;;;5072401;28;20029;-82
2020/12/19 16:07:54;;;;;;;18.65;10.40;;;;;;;;;;5073384;28;20101;-81
2020/12/19 16:10:20;;;;;;;19.70;8.73;;;;;;;;;;5062189;28;20448;-80
2020/12/19 16:12:46;;;;;;;19.77;9.13;;;;;;;;;;5074732;28;20111;-80
2020/12/19 16:17:29;;;;;;;25.20;13.73;;;;;;;;;;5101929;27;20458;-81
2020/12/19 16:19:55;;;;;;;29.67;12.70;;;;;;;;;;5090582;28;20032;-82
2020/12/19 16:22:21;;;;;;;30.02;14.82;;;;;;;;;;5090356;28;20105;-82
2020/12/19 16:24:47;;;;;;;20.88;11.75;;;;;;;;;;5089361;28;20024;-82
2020/12/19 16:27:13;;;;;;;19.92;10.35;;;;;;;;;;5083010;28;20442;-79
2020/12/19 16:29:40;;;;;;;20.75;9.98;;;;;;;;;;5088704;28;20091;-82
2020/12/19 16:32:08;;;;;;;17.55;8.98;;;;;;;;;;5091294;28;20028;-82
2020/12/19 16:34:34;;;;;;;14.93;7.18;;;;;;;;;;5090069;28;20008;-82
2020/12/19 16:37:07;;;;;;;13.90;7.65;;;;;;;;;;5087475;28;20017;-82
2020/12/19 16:39:33;;;;;;;10.82;7.05;;;;;;;;;;5087593;28;20021;-81
2020/12/19 16:41:59;;;;;;;18.15;12.45;;;;;;;;;;5087208;28;20456;-82
2020/12/19 16:44:25;;;;;;;29.70;20.13;;;;;;;;;;5087687;28;20016;-82
2020/12/19 16:46:51;;;;;;;18.90;12.88;;;;;;;;;;5087196;28;20029;-81
2020/12/19 16:49:17;;;;;;;22.27;13.02;;;;;;;;;;5083463;28;20024;-82
2020/12/19 16:51:44;;;;;;;26.00;13.63;;;;;;;;;;5092007;28;20036;-80
2020/12/19 16:54:14;;;;;;;21.35;12.35;;;;;;;;;;5090089;28;20070;-82
2020/12/19 16:56:40;;;;;;;29.13;14.82;;;;;;;;;;5088546;28;20020;-81
2020/12/19 16:59:06;;;;;;;32.47;14.82;;;;;;;;;;5090738;28;20077;-82
2020/12/19 17:01:36;;;;;;;30.02;18.02;;;;;;;;;;5086638;28;20016;-82
2020/12/19 17:04:03;;;;;;;37.65;20.70;;;;;;;;;;5088422;28;20088;-81
2020/12/19 17:06:29;;;;;;;29.70;17.05;;;;;;;;;;5090233;28;20028;-82
2020/12/19 17:08:55;;;;;;;51.38;30.38;;;;;;;;;;5090565;28;20736;-82
2020/12/19 17:11:22;;;;;;;36.45;21.70;;;;;;;;;;5087296;28;20121;-80
2020/12/19 17:13:48;;;;;;;34.05;19.55;;;;;;;;;;5090215;28;20016;-82
2020/12/19 17:16:18;;;;;;;30.15;18.45;;;;;;;;;;5089367;28;20460;-81
2020/12/19 17:18:44;;;;;;;30.40;18.73;;;;;;;;;;5085342;28;20071;-80
2020/12/19 17:21:10;;;;;;;23.83;15.70;;;;;;;;;;5088549;28;20091;-80
2020/12/19 17:23:36;;;;;;;32.25;20.85;;;;;;;;;;5088873;28;20027;-80
2020/12/19 17:28:20;;;;;;;25.75;12.90;;;;;;;;;;5102959;27;20401;-82
2020/12/19 17:30:46;;;;;;;21.55;12.88;;;;;;;;;;5099053;28;20131;-81
2020/12/19 17:33:11;;;;;;;23.63;14.77;;;;;;;;;;5102912;28;20048;-82
2020/12/19 17:35:38;;;;;;;28.63;15.25;;;;;;;;;;5101142;28;20024;-82
2020/12/19 17:38:03;;;;;;;26.55;14.27;;;;;;;;;;5094812;28;20024;-81
2020/12/19 17:40:29;;;;;;;23.58;13.73;;;;;;;;;;5093030;28;20503;-80
2020/12/19 17:42:55;;;;;;;14.95;9.02;;;;;;;;;;5086048;28;20016;-81
2020/12/19 17:45:21;;;;;;;15.65;10.57;;;;;;;;;;5093276;28;20040;-81
2020/12/19 17:47:47;;;;;;;17.02;11.98;;;;;;;;;;5091515;28;20385;-81
2020/12/19 17:52:32;;;;;;;19.52;12.38;;;;;;;;;;5109919;27;20412;-82
2020/12/19 17:54:58;;;;;;;16.45;11.18;;;;;;;;;;5090742;28;20024;-82
2020/12/19 17:57:28;;;;;;;13.77;10.00;;;;;;;;;;5106854;28;20446;-83
2020/12/19 17:59:54;;;;;;;16.85;10.45;;;;;;;;;;5095562;28;20024;-79
2020/12/19 18:02:20;;;;;;;18.52;11.98;;;;;;;;;;5086885;28;20644;-79
2020/12/19 18:04:46;;;;;;;17.63;10.85;;;;;;;;;;5087941;28;20107;-79
2020/12/19 18:07:12;;;;;;;16.02;10.25;;;;;;;;;;5088550;28;20107;-80
2020/12/19 18:09:38;;;;;;;21.45;12.13;;;;;;;;;;5086496;28;20070;-80
2020/12/19 18:12:04;;;;;;;20.33;9.73;;;;;;;;;;5089372;28;20427;-83
2020/12/19 18:14:29;;;;;;;16.60;8.48;;;;;;;;;;5090202;28;21230;-80
2020/12/19 18:16:55;;;;;;;18.30;9.15;;;;;;;;;;5087508;28;20025;-82
2020/12/19 18:19:21;;;;;;;28.77;12.38;;;;;;;;;;5095694;28;20427;-80
2020/12/19 18:21:51;;;;;;;18.67;8.30;;;;;;;;;;5093553;28;20027;-81
2020/12/19 18:24:17;;;;;;;16.83;8.18;;;;;;;;;;5089366;28;20484;-80
2020/12/19 18:26:45;;;;;;;11.15;6.07;;;;;;;;;;5091299;28;20040;-81
2020/12/19 18:29:11;;;;;;;13.93;6.82;;;;;;;;;;5089299;28;20081;-79
2020/12/19 18:31:37;;;;;;;9.88;5.85;;;;;;;;;;5088068;28;20480;-79
2020/12/19 18:34:03;;;;;;;29.10;12.75;;;;;;;;;;5088471;28;20024;-80
2020/12/19 18:36:29;;;;;;;24.38;12.75;;;;;;;;;;5087526;28;20040;-80
2020/12/19 18:38:55;;;;;;;20.73;11.93;;;;;;;;;;5085120;28;20029;-80
2020/12/19 18:41:21;;;;;;;21.45;9.45;;;;;;;;;;5084941;28;20408;-80
2020/12/19 18:43:47;;;;;;;21.00;10.68;;;;;;;;;;5087985;28;20031;-81
2020/12/19 18:46:13;;;;;;;28.38;15.73;;;;;;;;;;5087987;28;20030;-81
2020/12/19 18:48:39;;;;;;;25.95;11.77;;;;;;;;;;5087606;28;20120;-80
2020/12/19 18:51:05;;;;;;;41.95;24.48;;;;;;;;;;5087694;28;20043;-80
2020/12/19 18:53:31;;;;;;;38.60;21.38;;;;;;;;;;5087292;28;20028;-80
2020/12/19 18:55:58;;;;;;;30.92;17.80;;;;;;;;;;5075538;28;20099;-80
2020/12/19 18:58:24;;;;;;;34.85;20.73;;;;;;;;;;5088121;28;20078;-79
2020/12/19 19:00:50;;;;;;;36.30;17.90;;;;;;;;;;5087406;28;20030;-80
2020/12/19 19:03:16;;;;;;;29.08;16.45;;;;;;;;;;5078185;28;20028;-79
2020/12/19 19:05:45;;;;;;;38.75;17.70;;;;;;;;;;5077836;28;20028;-80
2020/12/19 19:08:11;;;;;;;23.10;12.55;;;;;;;;;;5077175;28;20035;-80
2020/12/19 19:10:37;;;;;;;20.48;12.07;;;;;;;;;;5080694;28;20119;-79
2020/12/19 19:13:03;;;;;;;20.95;12.27;;;;;;;;;;5085073;28;20027;-79
2020/12/19 19:15:29;;;;;;;30.05;14.02;;;;;;;;;;5082483;28;20024;-79
2020/12/19 19:17:56;;;;;;;26.10;13.68;;;;;;;;;;5088539;28;20035;-79
2020/12/19 19:20:22;;;;;;;28.75;15.07;;;;;;;;;;5077670;28;20036;-81
2020/12/19 19:22:49;;;;;;;25.80;15.80;;;;;;;;;;5074665;28;20016;-81
2020/12/19 19:25:15;;;;;;;28.00;16.70;;;;;;;;;;5084852;28;20020;-79
2020/12/19 19:27:41;;;;;;;22.15;13.77;;;;;;;;;;5070749;28;20024;-79
2020/12/19 19:30:08;;;;;;;27.30;15.48;;;;;;;;;;5079444;28;20020;-83
2020/12/19 19:32:34;;;;;;;24.52;13.70;;;;;;;;;;5073114;28;20079;-83
2020/12/19 19:35:00;;;;;;;24.00;14.10;;;;;;;;;;5076267;28;20025;-82
2020/12/19 19:39:44;;;;;;;20.80;12.30;;;;;;;;;;5113198;27;20429;-83
2020/12/19 19:42:10;;;;;;;23.13;14.30;;;;;;;;;;5106815;28;20029;-81
2020/12/19 19:44:39;;;;;;;36.70;19.88;;;;;;;;;;5101979;28;20051;-82
2020/12/19 19:47:05;;;;;;;27.20;15.68;;;;;;;;;;5107023;28;20044;-80
2020/12/19 19:49:31;;;;;;;23.48;14.15;;;;;;;;;;5103678;28;20019;-81
2020/12/19 19:51:58;;;;;;;19.52;12.27;;;;;;;;;;5107015;28;20047;-80
2020/12/19 19:54:24;;;;;;;20.10;12.00;;;;;;;;;;5097604;28;20038;-81
2020/12/19 19:56:54;;;;;;;25.40;15.73;;;;;;;;;;5090352;28;20048;-81
2020/12/19 19:59:21;;;;;;;27.77;16.48;;;;;;;;;;5100120;28;20032;-81
2020/12/19 20:01:47;;;;;;;30.48;17.70;;;;;;;;;;5099646;28;20028;-82
2020/12/19 20:04:13;;;;;;;28.60;16.42;;;;;;;;;;5100259;28;20039;-83
2020/12/19 20:06:39;;;;;;;30.33;18.27;;;;;;;;;;5099347;28;20032;-81
2020/12/19 20:09:08;;;;;;;30.67;18.85;;;;;;;;;;5098643;28;20024;-80
2020/12/19 20:11:35;;;;;;;30.98;18.77;;;;;;;;;;5100148;28;20529;-80
2020/12/19 20:14:01;;;;;;;30.02;18.60;;;;;;;;;;5092786;28;20043;-81
2020/12/19 20:16:28;;;;;;;35.47;20.20;;;;;;;;;;5092269;28;20039;-81
2020/12/19 20:18:57;;;;;;;26.50;17.35;;;;;;;;;;5098561;28;20024;-80
2020/12/19 20:21:23;;;;;;;37.10;19.83;;;;;;;;;;5092606;28;20024;-80
2020/12/19 20:23:49;;;;;;;39.13;21.63;;;;;;;;;;5094455;28;20106;-80
2020/12/19 20:26:16;;;;;;;38.25;23.70;;;;;;;;;;5091655;28;20103;-82
2020/12/19 20:28:51;;;;;;;51.50;28.27;;;;;;;;;;5095471;28;20035;-80
2020/12/19 20:31:18;;;;;;;44.15;25.42;;;;;;;;;;5093488;28;20028;-80
2020/12/19 20:36:05;;;;;;;37.80;23.20;;;;;;;;;;5081170;27;20373;-80
2020/12/19 20:38:31;;;;;;;44.38;25.35;;;;;;;;;;5061296;28;20435;-80
2020/12/19 20:40:56;;;;;;;41.72;24.52;;;;;;;;;;5058163;28;20490;-79